< Cyclone 196907 1969 Season Cyclone 196910 >
Cyclone 196908 (COLLEEN)
General InformationTrack Information on Google Maps || ResourceGoogle EarthGE AnimationAtom FeedGeoJSON
Detalied Best Track (Time Zone = UTC)
Year Month Day Hour Lat. Long. Pressure (hPa) Wind (kt) Class Image Chart
1969 1 27 05 -7.4 161.3 1003 0 0 -- --
1969 1 27 11 -7.4 160.0 1003 0 0 -- --
1969 1 27 23 -7.8 157.4 1002 0 0 -- --
1969 1 28 11 -8.6 155.7 1001 0 0 -- --
1969 1 28 17 -9.2 155.1 1000 0 0 -- --
1969 1 28 23 -9.9 155.2 999 0 0 -- --
1969 1 29 11 -10.9 156.1 992 0 0 -- --
1969 1 29 18 -11.4 156.7 988 0 0 -- --
1969 1 29 21 -11.5 157.0 988 0 0 -- --
1969 1 29 23 -11.7 157.3 987 0 0 -- --
1969 1 30 05 -11.9 158.0 986 0 0 -- --
1969 1 30 11 -12.3 158.8 984 0 0 -- --
1969 1 30 21 -12.7 160.0 984 0 0 -- --
1969 1 30 23 -12.9 160.3 984 0 0 -- --
1969 1 31 08 -13.9 161.7 982 0 0 -- --
1969 1 31 11 -14.4 162.2 982 0 0 -- --
1969 1 31 17 -15.2 163.2 979 0 0 -- --
1969 1 31 23 -17.1 164.6 975 0 0 -- --
1969 2 1 05 -18.8 165.5 970 0 0 -- --
1969 2 1 11 -20.6 166.3 966 0 0 -- --
1969 2 1 15 -21.5 166.3 964 0 0 -- --
1969 2 1 17 -22.0 166.3 963 0 0 -- --
1969 2 1 23 -23.6 167.0 963 0 0 -- --
1969 2 2 05 -24.6 167.6 964 0 0 -- --
1969 2 2 11 -25.5 167.6 966 0 0 -- --
1969 2 2 23 -27.6 167.2 973 0 0 -- --
1969 2 3 05 -28.3 166.6 976 0 0 -- --
1969 2 3 11 -28.9 166.2 980 0 0 -- --
1969 2 3 23 -29.9 164.8 982 0 0 -- --
1969 2 4 11 -31.1 163.7 990 0 0 -- --
1969 2 4 23 -31.9 163.7 990 0 0 -- --
< Cyclone 196907 1969 Season Cyclone 196910 >

Help